sensor_id;sensor_type;location;lat;lon;timestamp;temperature;humidity
36716;DHT22;22699;51.034;3.730;2023-01-25T00:01:42;3.20;99.90
36716;DHT22;22699;51.034;3.730;2023-01-25T00:04:08;3.10;99.90
36716;DHT22;22699;51.034;3.730;2023-01-25T00:06:33;3.20;99.90
36716;DHT22;22699;51.034;3.730;2023-01-25T00:08:59;3.30;99.90
36716;DHT22;22699;51.034;3.730;2023-01-25T00:11:24;3.30;99.90
36716;DHT22;22699;51.034;3.730;2023-01-25T00:13:53;3.40;99.90
36716;DHT22;22699;51.034;3.730;2023-01-25T00:16:19;3.50;99.90
36716;DHT22;22699;51.034;3.730;2023-01-25T00:18:45;3.60;99.90
36716;DHT22;22699;51.034;3.730;2023-01-25T00:21:11;3.40;99.90
36716;DHT22;22699;51.034;3.730;2023-01-25T00:23:36;3.00;99.90
36716;DHT22;22699;51.034;3.730;2023-01-25T00:26:02;2.90;99.90
36716;DHT22;22699;51.034;3.730;2023-01-25T00:28:27;2.90;99.90
36716;DHT22;22699;51.034;3.730;2023-01-25T00:30:57;3.00;99.90
36716;DHT22;22699;51.034;3.730;2023-01-25T00:35:54;3.20;99.90
36716;DHT22;22699;51.034;3.730;2023-01-25T00:38:27;3.30;99.90
36716;DHT22;22699;51.034;3.730;2023-01-25T00:40:54;3.40;99.90
36716;DHT22;22699;51.034;3.730;2023-01-25T00:43:19;3.60;99.90
36716;DHT22;22699;51.034;3.730;2023-01-25T00:45:45;3.70;99.90
36716;DHT22;22699;51.034;3.730;2023-01-25T00:48:11;3.70;99.90
36716;DHT22;22699;51.034;3.730;2023-01-25T00:50:37;3.70;99.90
36716;DHT22;22699;51.034;3.730;2023-01-25T00:53:02;3.60;99.90
36716;DHT22;22699;51.034;3.730;2023-01-25T00:55:28;3.70;99.90
36716;DHT22;22699;51.034;3.730;2023-01-25T00:57:53;3.70;99.90
36716;DHT22;22699;51.034;3.730;2023-01-25T01:00:20;3.80;99.90
36716;DHT22;22699;51.034;3.730;2023-01-25T01:02:45;3.80;99.90
36716;DHT22;22699;51.034;3.730;2023-01-25T01:05:11;3.80;99.90
36716;DHT22;22699;51.034;3.730;2023-01-25T01:07:36;3.50;99.90
36716;DHT22;22699;51.034;3.730;2023-01-25T01:10:02;3.40;99.90
36716;DHT22;22699;51.034;3.730;2023-01-25T01:12:28;3.40;99.90
36716;DHT22;22699;51.034;3.730;2023-01-25T01:14:53;3.70;99.90
36716;DHT22;22699;51.034;3.730;2023-01-25T01:17:19;3.90;99.90
36716;DHT22;22699;51.034;3.730;2023-01-25T01:19:44;3.90;99.90
36716;DHT22;22699;51.034;3.730;2023-01-25T01:22:10;3.80;99.90
36716;DHT22;22699;51.034;3.730;2023-01-25T01:24:36;3.80;99.90
36716;DHT22;22699;51.034;3.730;2023-01-25T01:27:02;3.90;99.90
36716;DHT22;22699;51.034;3.730;2023-01-25T01:29:27;4.00;99.90
36716;DHT22;22699;51.034;3.730;2023-01-25T01:31:53;4.00;99.90
36716;DHT22;22699;51.034;3.730;2023-01-25T01:34:19;3.70;99.90
36716;DHT22;22699;51.034;3.730;2023-01-25T01:36:45;3.50;99.90
36716;DHT22;22699;51.034;3.730;2023-01-25T01:39:11;3.40;99.90
36716;DHT22;22699;51.034;3.730;2023-01-25T01:41:36;3.60;99.90
36716;DHT22;22699;51.034;3.730;2023-01-25T01:44:02;3.80;99.90
36716;DHT22;22699;51.034;3.730;2023-01-25T01:46:35;4.00;99.90
36716;DHT22;22699;51.034;3.730;2023-01-25T01:49:44;4.00;99.90
36716;DHT22;22699;51.034;3.730;2023-01-25T01:59:15;3.80;99.90
36716;DHT22;22699;51.034;3.730;2023-01-25T02:01:41;3.80;99.90
36716;DHT22;22699;51.034;3.730;2023-01-25T02:04:07;3.70;99.90
36716;DHT22;22699;51.034;3.730;2023-01-25T02:06:38;3.70;99.90
36716;DHT22;22699;51.034;3.730;2023-01-25T02:09:07;3.70;99.90
36716;DHT22;22699;51.034;3.730;2023-01-25T02:11:32;3.90;99.90
36716;DHT22;22699;51.034;3.730;2023-01-25T02:13:58;3.80;99.90
36716;DHT22;22699;51.034;3.730;2023-01-25T02:16:25;4.00;99.90
36716;DHT22;22699;51.034;3.730;2023-01-25T02:18:52;4.00;99.90
36716;DHT22;22699;51.034;3.730;2023-01-25T02:21:18;3.60;99.90
36716;DHT22;22699;51.034;3.730;2023-01-25T02:23:45;3.30;99.90
36716;DHT22;22699;51.034;3.730;2023-01-25T02:26:12;3.00;99.90
36716;DHT22;22699;51.034;3.730;2023-01-25T02:28:43;3.00;99.90
36716;DHT22;22699;51.034;3.730;2023-01-25T02:31:11;2.90;99.90
36716;DHT22;22699;51.034;3.730;2023-01-25T02:33:37;2.90;99.90
36716;DHT22;22699;51.034;3.730;2023-01-25T02:38:35;3.10;99.90
36716;DHT22;22699;51.034;3.730;2023-01-25T02:41:10;3.20;99.90
36716;DHT22;22699;51.034;3.730;2023-01-25T02:43:37;3.30;99.90
36716;DHT22;22699;51.034;3.730;2023-01-25T02:46:06;3.40;99.90
36716;DHT22;22699;51.034;3.730;2023-01-25T02:48:35;3.30;99.90
36716;DHT22;22699;51.034;3.730;2023-01-25T02:51:00;3.20;99.90
36716;DHT22;22699;51.034;3.730;2023-01-25T02:53:26;3.50;99.90
36716;DHT22;22699;51.034;3.730;2023-01-25T02:55:51;3.30;99.90
36716;DHT22;22699;51.034;3.730;2023-01-25T02:58:17;3.00;99.90
36716;DHT22;22699;51.034;3.730;2023-01-25T03:00:43;2.80;99.90
36716;DHT22;22699;51.034;3.730;2023-01-25T03:03:09;3.00;99.90
36716;DHT22;22699;51.034;3.730;2023-01-25T03:05:34;3.10;99.90
36716;DHT22;22699;51.034;3.730;2023-01-25T03:08:00;3.30;99.90
36716;DHT22;22699;51.034;3.730;2023-01-25T03:10:26;3.30;99.90
36716;DHT22;22699;51.034;3.730;2023-01-25T03:12:51;2.90;99.90
36716;DHT22;22699;51.034;3.730;2023-01-25T03:15:17;2.90;99.90
36716;DHT22;22699;51.034;3.730;2023-01-25T03:17:43;2.90;99.90
36716;DHT22;22699;51.034;3.730;2023-01-25T03:20:09;3.00;99.90
36716;DHT22;22699;51.034;3.730;2023-01-25T03:22:35;2.90;99.90
36716;DHT22;22699;51.034;3.730;2023-01-25T03:25:01;2.70;99.90
36716;DHT22;22699;51.034;3.730;2023-01-25T03:27:28;2.60;99.90
36716;DHT22;22699;51.034;3.730;2023-01-25T03:29:53;2.80;99.90
36716;DHT22;22699;51.034;3.730;2023-01-25T03:32:19;2.70;99.90
36716;DHT22;22699;51.034;3.730;2023-01-25T03:34:44;2.60;99.90
36716;DHT22;22699;51.034;3.730;2023-01-25T03:37:10;2.60;99.90
36716;DHT22;22699;51.034;3.730;2023-01-25T03:39:36;2.70;99.90
36716;DHT22;22699;51.034;3.730;2023-01-25T03:42:02;2.80;99.90
36716;DHT22;22699;51.034;3.730;2023-01-25T03:44:27;2.70;99.90
36716;DHT22;22699;51.034;3.730;2023-01-25T03:46:53;2.90;99.90
36716;DHT22;22699;51.034;3.730;2023-01-25T03:49:18;2.90;99.90
36716;DHT22;22699;51.034;3.730;2023-01-25T03:51:44;3.10;99.90
36716;DHT22;22699;51.034;3.730;2023-01-25T03:54:09;3.00;99.90
36716;DHT22;22699;51.034;3.730;2023-01-25T03:56:36;3.10;99.90
36716;DHT22;22699;51.034;3.730;2023-01-25T03:59:02;3.30;99.90
36716;DHT22;22699;51.034;3.730;2023-01-25T04:01:27;3.30;99.90
36716;DHT22;22699;51.034;3.730;2023-01-25T04:03:53;3.50;99.90
36716;DHT22;22699;51.034;3.730;2023-01-25T04:06:18;3.40;99.90
36716;DHT22;22699;51.034;3.730;2023-01-25T04:08:44;3.40;99.90
36716;DHT22;22699;51.034;3.730;2023-01-25T04:11:10;3.40;99.90
36716;DHT22;22699;51.034;3.730;2023-01-25T04:13:35;3.30;99.90
36716;DHT22;22699;51.034;3.730;2023-01-25T04:16:02;3.30;99.90
36716;DHT22;22699;51.034;3.730;2023-01-25T04:18:27;3.40;99.90
36716;DHT22;22699;51.034;3.730;2023-01-25T04:20:54;3.30;99.90
36716;DHT22;22699;51.034;3.730;2023-01-25T04:23:20;3.30;99.90
36716;DHT22;22699;51.034;3.730;2023-01-25T04:25:55;3.20;99.90
36716;DHT22;22699;51.034;3.730;2023-01-25T04:28:21;3.10;99.90
36716;DHT22;22699;51.034;3.730;2023-01-25T04:30:47;3.20;99.90
36716;DHT22;22699;51.034;3.730;2023-01-25T04:33:12;3.30;99.90
36716;DHT22;22699;51.034;3.730;2023-01-25T04:35:38;3.30;99.90
36716;DHT22;22699;51.034;3.730;2023-01-25T04:38:03;3.00;99.90
36716;DHT22;22699;51.034;3.730;2023-01-25T04:40:29;3.00;99.90
36716;DHT22;22699;51.034;3.730;2023-01-25T04:42:54;3.00;99.90
36716;DHT22;22699;51.034;3.730;2023-01-25T04:45:20;3.20;99.90
36716;DHT22;22699;51.034;3.730;2023-01-25T04:47:45;2.60;99.90
36716;DHT22;22699;51.034;3.730;2023-01-25T04:50:11;2.60;99.90
36716;DHT22;22699;51.034;3.730;2023-01-25T04:52:39;2.80;99.90
36716;DHT22;22699;51.034;3.730;2023-01-25T04:55:04;3.00;99.90
36716;DHT22;22699;51.034;3.730;2023-01-25T04:57:30;3.20;99.90
36716;DHT22;22699;51.034;3.730;2023-01-25T04:59:55;3.10;99.90
36716;DHT22;22699;51.034;3.730;2023-01-25T05:02:21;2.70;99.90
36716;DHT22;22699;51.034;3.730;2023-01-25T05:04:46;2.50;99.90
36716;DHT22;22699;51.034;3.730;2023-01-25T05:07:12;2.40;99.90
36716;DHT22;22699;51.034;3.730;2023-01-25T05:09:37;2.50;99.90
36716;DHT22;22699;51.034;3.730;2023-01-25T05:12:03;2.50;99.90
36716;DHT22;22699;51.034;3.730;2023-01-25T05:14:36;2.40;99.90
36716;DHT22;22699;51.034;3.730;2023-01-25T05:17:02;2.20;99.90
36716;DHT22;22699;51.034;3.730;2023-01-25T05:19:27;2.00;99.90
36716;DHT22;22699;51.034;3.730;2023-01-25T05:21:53;2.00;99.90
36716;DHT22;22699;51.034;3.730;2023-01-25T05:24:28;2.20;99.90
36716;DHT22;22699;51.034;3.730;2023-01-25T05:26:54;2.30;99.90
36716;DHT22;22699;51.034;3.730;2023-01-25T05:29:32;2.50;99.90
36716;DHT22;22699;51.034;3.730;2023-01-25T05:32:08;2.90;99.90
36716;DHT22;22699;51.034;3.730;2023-01-25T05:34:34;3.00;99.90
36716;DHT22;22699;51.034;3.730;2023-01-25T05:37:00;3.10;99.90
36716;DHT22;22699;51.034;3.730;2023-01-25T05:39:25;3.20;99.90
36716;DHT22;22699;51.034;3.730;2023-01-25T05:41:51;3.30;99.90
36716;DHT22;22699;51.034;3.730;2023-01-25T05:44:17;3.50;99.90
36716;DHT22;22699;51.034;3.730;2023-01-25T05:46:43;3.40;99.90
36716;DHT22;22699;51.034;3.730;2023-01-25T05:49:08;3.20;99.90
36716;DHT22;22699;51.034;3.730;2023-01-25T05:51:34;3.30;99.90
36716;DHT22;22699;51.034;3.730;2023-01-25T05:54:00;3.30;99.90
36716;DHT22;22699;51.034;3.730;2023-01-25T05:56:26;3.40;99.90
36716;DHT22;22699;51.034;3.730;2023-01-25T05:58:54;3.50;99.90
36716;DHT22;22699;51.034;3.730;2023-01-25T06:01:20;3.60;99.90
36716;DHT22;22699;51.034;3.730;2023-01-25T06:03:46;3.50;99.90
36716;DHT22;22699;51.034;3.730;2023-01-25T06:06:12;3.50;99.90
36716;DHT22;22699;51.034;3.730;2023-01-25T06:08:38;3.50;99.90
36716;DHT22;22699;51.034;3.730;2023-01-25T06:11:07;3.50;99.90
36716;DHT22;22699;51.034;3.730;2023-01-25T06:13:32;3.50;99.90
36716;DHT22;22699;51.034;3.730;2023-01-25T06:15:58;3.30;99.90
36716;DHT22;22699;51.034;3.730;2023-01-25T06:18:23;3.40;99.90
36716;DHT22;22699;51.034;3.730;2023-01-25T06:20:49;3.30;99.90
36716;DHT22;22699;51.034;3.730;2023-01-25T06:23:15;3.30;99.90
36716;DHT22;22699;51.034;3.730;2023-01-25T06:25:41;3.40;99.90
36716;DHT22;22699;51.034;3.730;2023-01-25T06:28:06;3.40;99.90
36716;DHT22;22699;51.034;3.730;2023-01-25T06:30:32;3.10;99.90
36716;DHT22;22699;51.034;3.730;2023-01-25T06:32:57;2.90;99.90
36716;DHT22;22699;51.034;3.730;2023-01-25T06:35:23;2.90;99.90
36716;DHT22;22699;51.034;3.730;2023-01-25T06:37:49;3.00;99.90
36716;DHT22;22699;51.034;3.730;2023-01-25T06:40:20;3.10;99.90
36716;DHT22;22699;51.034;3.730;2023-01-25T06:42:46;3.30;99.90
36716;DHT22;22699;51.034;3.730;2023-01-25T06:45:11;3.40;99.90
36716;DHT22;22699;51.034;3.730;2023-01-25T06:47:37;3.50;99.90
36716;DHT22;22699;51.034;3.730;2023-01-25T06:52:32;3.70;99.90
36716;DHT22;22699;51.034;3.730;2023-01-25T06:55:01;3.60;99.90
36716;DHT22;22699;51.034;3.730;2023-01-25T06:57:26;3.60;99.90
36716;DHT22;22699;51.034;3.730;2023-01-25T06:59:53;3.70;99.90
36716;DHT22;22699;51.034;3.730;2023-01-25T07:02:19;3.80;99.90
36716;DHT22;22699;51.034;3.730;2023-01-25T07:04:45;3.70;99.90
36716;DHT22;22699;51.034;3.730;2023-01-25T07:07:10;3.90;99.90
36716;DHT22;22699;51.034;3.730;2023-01-25T07:09:36;4.00;99.90
36716;DHT22;22699;51.034;3.730;2023-01-25T07:12:01;3.90;99.90
36716;DHT22;22699;51.034;3.730;2023-01-25T07:14:30;4.30;99.90
36716;DHT22;22699;51.034;3.730;2023-01-25T07:16:56;3.70;99.90
36716;DHT22;22699;51.034;3.730;2023-01-25T07:19:21;3.40;99.90
36716;DHT22;22699;51.034;3.730;2023-01-25T07:21:47;3.20;99.90
36716;DHT22;22699;51.034;3.730;2023-01-25T07:24:14;3.20;99.90
36716;DHT22;22699;51.034;3.730;2023-01-25T07:26:40;3.30;99.90
36716;DHT22;22699;51.034;3.730;2023-01-25T07:29:06;3.30;99.90
36716;DHT22;22699;51.034;3.730;2023-01-25T07:31:34;3.40;99.90
36716;DHT22;22699;51.034;3.730;2023-01-25T07:33:59;3.60;99.90
36716;DHT22;22699;51.034;3.730;2023-01-25T07:36:25;3.50;99.90
36716;DHT22;22699;51.034;3.730;2023-01-25T07:38:55;3.50;99.90
36716;DHT22;22699;51.034;3.730;2023-01-25T07:41:24;3.70;99.90
36716;DHT22;22699;51.034;3.730;2023-01-25T07:43:50;3.80;99.90
36716;DHT22;22699;51.034;3.730;2023-01-25T07:46:16;3.50;99.90
36716;DHT22;22699;51.034;3.730;2023-01-25T07:48:45;3.60;99.90
36716;DHT22;22699;51.034;3.730;2023-01-25T07:51:10;3.70;99.90
36716;DHT22;22699;51.034;3.730;2023-01-25T07:53:39;3.70;99.90
36716;DHT22;22699;51.034;3.730;2023-01-25T07:56:06;3.60;99.90
36716;DHT22;22699;51.034;3.730;2023-01-25T07:58:31;3.70;99.90
36716;DHT22;22699;51.034;3.730;2023-01-25T08:00:57;3.80;99.90
36716;DHT22;22699;51.034;3.730;2023-01-25T08:03:30;3.80;99.90
36716;DHT22;22699;51.034;3.730;2023-01-25T08:08:26;3.50;99.90
36716;DHT22;22699;51.034;3.730;2023-01-25T08:10:51;3.40;99.90
36716;DHT22;22699;51.034;3.730;2023-01-25T08:13:17;3.30;99.90
36716;DHT22;22699;51.034;3.730;2023-01-25T08:15:42;3.20;99.90
36716;DHT22;22699;51.034;3.730;2023-01-25T08:18:08;3.30;99.90
36716;DHT22;22699;51.034;3.730;2023-01-25T08:20:33;3.10;99.90
36716;DHT22;22699;51.034;3.730;2023-01-25T08:23:00;3.00;99.90
36716;DHT22;22699;51.034;3.730;2023-01-25T08:25:25;2.70;99.90
36716;DHT22;22699;51.034;3.730;2023-01-25T08:27:52;2.80;99.90
36716;DHT22;22699;51.034;3.730;2023-01-25T08:30:17;2.90;99.90
36716;DHT22;22699;51.034;3.730;2023-01-25T08:32:43;3.20;99.90
36716;DHT22;22699;51.034;3.730;2023-01-25T08:35:08;3.30;99.90
36716;DHT22;22699;51.034;3.730;2023-01-25T08:37:34;3.20;99.90
36716;DHT22;22699;51.034;3.730;2023-01-25T08:40:00;2.90;99.90
36716;DHT22;22699;51.034;3.730;2023-01-25T08:42:26;2.80;99.90
36716;DHT22;22699;51.034;3.730;2023-01-25T08:44:51;2.90;99.90
36716;DHT22;22699;51.034;3.730;2023-01-25T08:47:17;3.00;99.90
36716;DHT22;22699;51.034;3.730;2023-01-25T08:49:42;2.90;99.90
36716;DHT22;22699;51.034;3.730;2023-01-25T08:52:08;3.10;99.90
36716;DHT22;22699;51.034;3.730;2023-01-25T08:54:33;3.10;99.90
36716;DHT22;22699;51.034;3.730;2023-01-25T08:57:00;3.30;99.90
36716;DHT22;22699;51.034;3.730;2023-01-25T08:59:25;3.30;99.90
36716;DHT22;22699;51.034;3.730;2023-01-25T09:01:51;3.20;99.90
36716;DHT22;22699;51.034;3.730;2023-01-25T09:04:16;3.20;99.90
36716;DHT22;22699;51.034;3.730;2023-01-25T09:06:42;3.20;99.90
36716;DHT22;22699;51.034;3.730;2023-01-25T09:09:07;3.30;99.90
36716;DHT22;22699;51.034;3.730;2023-01-25T09:11:33;3.80;99.90
36716;DHT22;22699;51.034;3.730;2023-01-25T09:14:01;3.50;99.90
36716;DHT22;22699;51.034;3.730;2023-01-25T09:16:26;3.50;99.90
36716;DHT22;22699;51.034;3.730;2023-01-25T09:18:56;3.60;99.90
36716;DHT22;22699;51.034;3.730;2023-01-25T09:21:21;3.50;99.90
36716;DHT22;22699;51.034;3.730;2023-01-25T09:23:47;3.20;99.90
36716;DHT22;22699;51.034;3.730;2023-01-25T09:26:13;3.10;99.90
36716;DHT22;22699;51.034;3.730;2023-01-25T09:28:40;3.00;99.90
36716;DHT22;22699;51.034;3.730;2023-01-25T09:31:07;3.00;99.90
36716;DHT22;22699;51.034;3.730;2023-01-25T09:33:33;3.00;99.90
36716;DHT22;22699;51.034;3.730;2023-01-25T09:35:59;3.10;99.90
36716;DHT22;22699;51.034;3.730;2023-01-25T09:38:25;3.10;99.90
36716;DHT22;22699;51.034;3.730;2023-01-25T09:41:06;3.30;99.90
36716;DHT22;22699;51.034;3.730;2023-01-25T09:46:24;3.40;99.90
36716;DHT22;22699;51.034;3.730;2023-01-25T09:48:54;3.40;99.90
36716;DHT22;22699;51.034;3.730;2023-01-25T09:51:25;3.40;99.90
36716;DHT22;22699;51.034;3.730;2023-01-25T09:53:54;3.80;99.90
36716;DHT22;22699;51.034;3.730;2023-01-25T09:56:25;3.50;99.90
36716;DHT22;22699;51.034;3.730;2023-01-25T09:58:52;3.30;99.90
36716;DHT22;22699;51.034;3.730;2023-01-25T10:06:16;3.00;99.90
36716;DHT22;22699;51.034;3.730;2023-01-25T10:08:48;3.30;99.90
36716;DHT22;22699;51.034;3.730;2023-01-25T10:13:42;3.00;99.90
36716;DHT22;22699;51.034;3.730;2023-01-25T10:16:23;3.00;99.90
36716;DHT22;22699;51.034;3.730;2023-01-25T10:23:56;3.20;99.90
36716;DHT22;22699;51.034;3.730;2023-01-25T10:26:26;3.30;99.90
36716;DHT22;22699;51.034;3.730;2023-01-25T10:31:50;3.00;99.90
36716;DHT22;22699;51.034;3.730;2023-01-25T10:37:34;3.00;99.90
36716;DHT22;22699;51.034;3.730;2023-01-25T10:42:26;2.80;99.90
36716;DHT22;22699;51.034;3.730;2023-01-25T10:44:54;2.80;99.90
36716;DHT22;22699;51.034;3.730;2023-01-25T10:47:24;2.90;99.90
36716;DHT22;22699;51.034;3.730;2023-01-25T10:49:51;3.10;99.90
36716;DHT22;22699;51.034;3.730;2023-01-25T10:52:19;3.10;99.90
36716;DHT22;22699;51.034;3.730;2023-01-25T10:54:46;3.00;99.90
36716;DHT22;22699;51.034;3.730;2023-01-25T10:57:16;3.00;99.90
36716;DHT22;22699;51.034;3.730;2023-01-25T10:59:44;3.10;99.90
36716;DHT22;22699;51.034;3.730;2023-01-25T11:04:48;3.30;99.90
36716;DHT22;22699;51.034;3.730;2023-01-25T11:07:25;3.30;99.90
36716;DHT22;22699;51.034;3.730;2023-01-25T11:09:53;3.20;99.90
36716;DHT22;22699;51.034;3.730;2023-01-25T11:12:19;3.20;99.90
36716;DHT22;22699;51.034;3.730;2023-01-25T11:14:48;2.70;99.90
36716;DHT22;22699;51.034;3.730;2023-01-25T11:17:35;2.40;99.90
36716;DHT22;22699;51.034;3.730;2023-01-25T11:22:34;2.60;99.90
36716;DHT22;22699;51.034;3.730;2023-01-25T11:25:21;2.60;99.90
36716;DHT22;22699;51.034;3.730;2023-01-25T11:27:46;2.60;99.90
36716;DHT22;22699;51.034;3.730;2023-01-25T11:30:15;2.70;99.90
36716;DHT22;22699;51.034;3.730;2023-01-25T11:32:43;2.80;99.90
36716;DHT22;22699;51.034;3.730;2023-01-25T11:35:16;3.10;99.90
36716;DHT22;22699;51.034;3.730;2023-01-25T11:37:52;3.10;99.90
36716;DHT22;22699;51.034;3.730;2023-01-25T11:40:36;3.40;99.90
36716;DHT22;22699;51.034;3.730;2023-01-25T11:43:21;3.60;99.90
36716;DHT22;22699;51.034;3.730;2023-01-25T11:48:42;2.90;99.90
36716;DHT22;22699;51.034;3.730;2023-01-25T11:53:43;2.80;99.90
36716;DHT22;22699;51.034;3.730;2023-01-25T11:58:42;2.60;99.90
36716;DHT22;22699;51.034;3.730;2023-01-25T12:21:31;3.30;99.90
36716;DHT22;22699;51.034;3.730;2023-01-25T12:24:20;3.50;99.90
36716;DHT22;22699;51.034;3.730;2023-01-25T12:32:06;3.70;99.90
36716;DHT22;22699;51.034;3.730;2023-01-25T12:34:37;3.60;99.90
36716;DHT22;22699;51.034;3.730;2023-01-25T12:37:06;3.50;99.90
36716;DHT22;22699;51.034;3.730;2023-01-25T12:39:36;3.50;99.90
36716;DHT22;22699;51.034;3.730;2023-01-25T12:42:07;3.60;99.90
36716;DHT22;22699;51.034;3.730;2023-01-25T12:44:49;3.60;99.90
36716;DHT22;22699;51.034;3.730;2023-01-25T12:47:24;3.40;99.90
36716;DHT22;22699;51.034;3.730;2023-01-25T12:49:59;3.10;99.90
36716;DHT22;22699;51.034;3.730;2023-01-25T12:52:30;3.40;99.90
36716;DHT22;22699;51.034;3.730;2023-01-25T12:54:59;3.70;99.90
36716;DHT22;22699;51.034;3.730;2023-01-25T13:00:07;3.30;99.90
36716;DHT22;22699;51.034;3.730;2023-01-25T13:10:25;3.20;99.90
36716;DHT22;22699;51.034;3.730;2023-01-25T13:13:00;3.30;99.90
36716;DHT22;22699;51.034;3.730;2023-01-25T13:15:44;3.30;99.90
36716;DHT22;22699;51.034;3.730;2023-01-25T13:20:55;2.90;99.90
36716;DHT22;22699;51.034;3.730;2023-01-25T13:23:40;2.80;99.90
36716;DHT22;22699;51.034;3.730;2023-01-25T13:28:41;3.00;99.90
36716;DHT22;22699;51.034;3.730;2023-01-25T13:31:06;3.10;99.90
36716;DHT22;22699;51.034;3.730;2023-01-25T13:33:33;3.20;99.90
36716;DHT22;22699;51.034;3.730;2023-01-25T13:38:44;2.90;99.90
36716;DHT22;22699;51.034;3.730;2023-01-25T13:41:11;2.80;99.90
36716;DHT22;22699;51.034;3.730;2023-01-25T13:43:41;2.70;99.90
36716;DHT22;22699;51.034;3.730;2023-01-25T13:46:07;2.60;99.90
36716;DHT22;22699;51.034;3.730;2023-01-25T13:48:34;2.40;99.90
36716;DHT22;22699;51.034;3.730;2023-01-25T13:51:01;2.50;99.90
36716;DHT22;22699;51.034;3.730;2023-01-25T13:53:29;2.50;99.90
36716;DHT22;22699;51.034;3.730;2023-01-25T13:55:59;2.60;99.90
36716;DHT22;22699;51.034;3.730;2023-01-25T13:58:26;2.50;99.90
36716;DHT22;22699;51.034;3.730;2023-01-25T14:03:18;2.80;99.90
36716;DHT22;22699;51.034;3.730;2023-01-25T14:05:49;2.70;99.90
36716;DHT22;22699;51.034;3.730;2023-01-25T14:08:16;2.70;99.90
36716;DHT22;22699;51.034;3.730;2023-01-25T14:10:42;2.60;99.90
36716;DHT22;22699;51.034;3.730;2023-01-25T14:13:12;2.60;99.90
36716;DHT22;22699;51.034;3.730;2023-01-25T14:15:38;2.70;99.90
36716;DHT22;22699;51.034;3.730;2023-01-25T14:18:08;2.80;99.90
36716;DHT22;22699;51.034;3.730;2023-01-25T14:20:35;2.70;99.90
36716;DHT22;22699;51.034;3.730;2023-01-25T14:23:00;2.60;99.90
36716;DHT22;22699;51.034;3.730;2023-01-25T14:25:26;2.30;99.90
36716;DHT22;22699;51.034;3.730;2023-01-25T14:27:55;2.40;99.90
36716;DHT22;22699;51.034;3.730;2023-01-25T14:30:31;2.40;99.90
36716;DHT22;22699;51.034;3.730;2023-01-25T14:32:58;2.60;99.90
36716;DHT22;22699;51.034;3.730;2023-01-25T14:35:31;2.90;99.90
36716;DHT22;22699;51.034;3.730;2023-01-25T14:37:57;2.70;99.90
36716;DHT22;22699;51.034;3.730;2023-01-25T14:40:26;2.50;99.90
36716;DHT22;22699;51.034;3.730;2023-01-25T14:42:53;2.40;99.90
36716;DHT22;22699;51.034;3.730;2023-01-25T14:45:21;2.60;99.90
36716;DHT22;22699;51.034;3.730;2023-01-25T14:47:49;2.60;99.90
36716;DHT22;22699;51.034;3.730;2023-01-25T14:50:31;2.60;99.90
36716;DHT22;22699;51.034;3.730;2023-01-25T14:52:57;2.60;99.90
36716;DHT22;22699;51.034;3.730;2023-01-25T14:55:23;2.60;99.90
36716;DHT22;22699;51.034;3.730;2023-01-25T14:57:51;2.80;99.90
36716;DHT22;22699;51.034;3.730;2023-01-25T15:00:21;2.80;99.90
36716;DHT22;22699;51.034;3.730;2023-01-25T15:02:51;3.20;99.90
36716;DHT22;22699;51.034;3.730;2023-01-25T15:05:25;3.20;99.90
36716;DHT22;22699;51.034;3.730;2023-01-25T15:10:26;3.00;99.90
36716;DHT22;22699;51.034;3.730;2023-01-25T15:15:36;3.20;99.90
36716;DHT22;22699;51.034;3.730;2023-01-25T15:18:02;3.30;99.90
36716;DHT22;22699;51.034;3.730;2023-01-25T15:22:56;3.30;99.90
36716;DHT22;22699;51.034;3.730;2023-01-25T15:25:23;3.30;99.90
36716;DHT22;22699;51.034;3.730;2023-01-25T15:27:50;3.20;99.90
36716;DHT22;22699;51.034;3.730;2023-01-25T15:30:16;3.20;99.90
36716;DHT22;22699;51.034;3.730;2023-01-25T15:32:42;3.00;99.90
36716;DHT22;22699;51.034;3.730;2023-01-25T15:35:11;3.10;99.90
36716;DHT22;22699;51.034;3.730;2023-01-25T15:37:37;3.10;99.90
36716;DHT22;22699;51.034;3.730;2023-01-25T15:40:03;2.90;99.90
36716;DHT22;22699;51.034;3.730;2023-01-25T15:42:28;2.70;99.90
36716;DHT22;22699;51.034;3.730;2023-01-25T15:44:55;2.40;99.90
36716;DHT22;22699;51.034;3.730;2023-01-25T15:47:21;2.40;99.90
36716;DHT22;22699;51.034;3.730;2023-01-25T15:49:47;2.30;99.90
36716;DHT22;22699;51.034;3.730;2023-01-25T15:52:14;2.10;99.90
36716;DHT22;22699;51.034;3.730;2023-01-25T15:54:39;2.10;99.90
36716;DHT22;22699;51.034;3.730;2023-01-25T15:57:07;2.10;99.90
36716;DHT22;22699;51.034;3.730;2023-01-25T15:59:39;2.30;99.90
36716;DHT22;22699;51.034;3.730;2023-01-25T16:02:08;2.40;99.90
36716;DHT22;22699;51.034;3.730;2023-01-25T16:04:35;2.30;99.90
36716;DHT22;22699;51.034;3.730;2023-01-25T16:07:02;2.20;99.90
36716;DHT22;22699;51.034;3.730;2023-01-25T16:09:28;2.10;99.90
36716;DHT22;22699;51.034;3.730;2023-01-25T16:11:56;2.10;99.90
36716;DHT22;22699;51.034;3.730;2023-01-25T16:14:21;2.10;99.90
36716;DHT22;22699;51.034;3.730;2023-01-25T16:16:48;1.90;99.90
36716;DHT22;22699;51.034;3.730;2023-01-25T16:19:15;2.10;99.90
36716;DHT22;22699;51.034;3.730;2023-01-25T16:21:41;2.00;99.90
36716;DHT22;22699;51.034;3.730;2023-01-25T16:24:07;2.00;99.90
36716;DHT22;22699;51.034;3.730;2023-01-25T16:26:32;2.00;99.90
36716;DHT22;22699;51.034;3.730;2023-01-25T16:28:59;1.90;99.90
36716;DHT22;22699;51.034;3.730;2023-01-25T16:31:25;1.90;99.90
36716;DHT22;22699;51.034;3.730;2023-01-25T16:33:51;2.00;99.90
36716;DHT22;22699;51.034;3.730;2023-01-25T16:36:21;2.00;99.90
36716;DHT22;22699;51.034;3.730;2023-01-25T16:38:46;2.20;99.90
36716;DHT22;22699;51.034;3.730;2023-01-25T16:41:12;2.30;99.90
36716;DHT22;22699;51.034;3.730;2023-01-25T16:43:45;2.10;99.90
36716;DHT22;22699;51.034;3.730;2023-01-25T16:46:15;2.00;99.90
36716;DHT22;22699;51.034;3.730;2023-01-25T16:48:42;2.10;99.90
36716;DHT22;22699;51.034;3.730;2023-01-25T16:51:12;2.10;99.90
36716;DHT22;22699;51.034;3.730;2023-01-25T16:53:38;2.20;99.90
36716;DHT22;22699;51.034;3.730;2023-01-25T16:56:04;2.20;99.90
36716;DHT22;22699;51.034;3.730;2023-01-25T16:58:29;2.30;99.90
36716;DHT22;22699;51.034;3.730;2023-01-25T17:01:06;2.20;99.90
36716;DHT22;22699;51.034;3.730;2023-01-25T17:03:35;2.20;99.90
36716;DHT22;22699;51.034;3.730;2023-01-25T17:06:01;2.10;99.90
36716;DHT22;22699;51.034;3.730;2023-01-25T17:08:27;2.10;99.90
36716;DHT22;22699;51.034;3.730;2023-01-25T17:10:52;2.10;99.90
36716;DHT22;22699;51.034;3.730;2023-01-25T17:13:22;2.10;99.90
36716;DHT22;22699;51.034;3.730;2023-01-25T17:15:47;2.20;99.90
36716;DHT22;22699;51.034;3.730;2023-01-25T17:18:13;2.30;99.90
36716;DHT22;22699;51.034;3.730;2023-01-25T17:20:39;2.40;99.90
36716;DHT22;22699;51.034;3.730;2023-01-25T17:23:05;2.40;99.90
36716;DHT22;22699;51.034;3.730;2023-01-25T17:25:31;2.10;99.90
36716;DHT22;22699;51.034;3.730;2023-01-25T17:28:00;2.00;99.90
36716;DHT22;22699;51.034;3.730;2023-01-25T17:30:25;2.00;99.90
36716;DHT22;22699;51.034;3.730;2023-01-25T17:32:53;1.90;99.90
36716;DHT22;22699;51.034;3.730;2023-01-25T17:35:18;1.90;99.90